Time;durP1;ratioP1;P1;durP2;ratioP2;P2;SDS_P1;SDS_P2;PMS_P1;PMS_P2;Temp;Humidity;BMP_temperature;BMP_pressure;BME280_temperature;BME280_humidity;BME280_pressure;Samples;Min_cycle;Max_cycle;Signal;HPM_P1;HPM_P2
2021/05/05 00:00:31;;;;;;;3.10;0.98;;;9.70;99.90;;;;;;5033754;28;20032;-60
2021/05/05 00:02:57;;;;;;;1.80;0.93;;;9.60;99.90;;;;;;5033697;28;20029;-60
2021/05/05 00:05:23;;;;;;;5.88;1.40;;;9.60;99.90;;;;;;5033402;28;20044;-61
2021/05/05 00:07:49;;;;;;;2.67;1.00;;;9.50;99.90;;;;;;5033543;28;20479;-61
2021/05/05 00:10:16;;;;;;;2.28;1.10;;;9.50;99.90;;;;;;5033637;28;20041;-61
2021/05/05 00:12:43;;;;;;;2.55;1.05;;;9.50;99.90;;;;;;5032342;28;20033;-61
2021/05/05 00:15:18;;;;;;;3.90;1.08;;;9.50;99.90;;;;;;5033259;28;20029;-61
2021/05/05 00:17:44;;;;;;;3.30;0.90;;;9.60;99.90;;;;;;5053089;28;20477;-61
2021/05/05 00:20:11;;;;;;;4.50;1.45;;;9.60;99.90;;;;;;5053248;28;20028;-61
2021/05/05 00:22:37;;;;;;;3.22;0.90;;;9.50;99.90;;;;;;5051635;28;20446;-60
2021/05/05 00:25:05;;;;;;;3.63;1.70;;;9.50;99.90;;;;;;5051900;28;20044;-60
2021/05/05 00:27:31;;;;;;;1.30;0.88;;;9.50;99.90;;;;;;5051957;28;20040;-60
2021/05/05 00:29:58;;;;;;;3.55;0.88;;;9.50;99.90;;;;;;5051869;28;20032;-60
2021/05/05 00:32:24;;;;;;;5.07;1.10;;;9.50;99.90;;;;;;5051987;28;20064;-60
2021/05/05 00:34:50;;;;;;;2.53;1.52;;;9.50;99.90;;;;;;5052718;28;20021;-61
2021/05/05 00:37:15;;;;;;;2.15;1.10;;;9.50;99.90;;;;;;5053133;28;20029;-61
2021/05/05 00:39:41;;;;;;;2.65;0.90;;;9.50;99.90;;;;;;5052939;28;20025;-60
2021/05/05 00:42:07;;;;;;;3.40;1.10;;;9.50;99.90;;;;;;5052845;28;20033;-61
2021/05/05 00:44:33;;;;;;;2.08;0.90;;;9.40;99.90;;;;;;5040375;28;20447;-61
2021/05/05 00:47:00;;;;;;;2.65;1.30;;;9.40;99.90;;;;;;5032755;28;20041;-61
2021/05/05 00:49:26;;;;;;;2.30;1.15;;;9.50;99.90;;;;;;5032555;28;20390;-61
2021/05/05 00:51:53;;;;;;;3.65;0.90;;;9.40;99.90;;;;;;5032537;28;20033;-60
2021/05/05 00:54:19;;;;;;;2.35;0.80;;;9.40;99.90;;;;;;5032554;28;20077;-61
2021/05/05 00:56:45;;;;;;;1.92;1.02;;;9.40;99.90;;;;;;5031458;28;20029;-60
2021/05/05 00:59:12;;;;;;;1.75;0.85;;;9.40;99.90;;;;;;5031429;28;20032;-61
2021/05/05 01:01:42;;;;;;;5.63;0.77;;;9.50;99.90;;;;;;5015062;28;20122;-60
2021/05/05 01:04:10;;;;;;;1.83;0.98;;;9.40;99.90;;;;;;5032348;28;20048;-60
2021/05/05 01:06:37;;;;;;;3.53;0.95;;;9.40;99.90;;;;;;5031201;28;20449;-60
2021/05/05 01:09:04;;;;;;;1.40;0.60;;;9.50;99.90;;;;;;5031396;28;20108;-60
2021/05/05 01:11:30;;;;;;;2.25;1.00;;;9.60;99.90;;;;;;5032652;28;20033;-62
2021/05/05 01:13:56;;;;;;;6.03;1.13;;;9.50;99.90;;;;;;5032370;28;20043;-60
2021/05/05 01:16:23;;;;;;;2.15;0.80;;;9.50;99.90;;;;;;5051239;28;20040;-60
2021/05/05 01:18:51;;;;;;;2.17;0.95;;;9.50;99.90;;;;;;5052009;28;20046;-60
2021/05/05 01:21:18;;;;;;;2.88;1.00;;;9.50;99.90;;;;;;5051932;28;20037;-61
2021/05/05 01:23:44;;;;;;;3.53;1.00;;;9.50;99.90;;;;;;5052173;28;20474;-60
2021/05/05 01:26:10;;;;;;;5.50;1.00;;;9.50;99.90;;;;;;5034186;28;20037;-61
2021/05/05 01:28:42;;;;;;;4.90;1.08;;;9.40;99.90;;;;;;5052211;28;20033;-61
2021/05/05 01:31:14;;;;;;;2.47;0.80;;;9.40;99.90;;;;;;5034461;28;20116;-61
2021/05/05 01:33:41;;;;;;;3.38;0.70;;;9.40;99.90;;;;;;5052144;28;20040;-61
2021/05/05 01:36:12;;;;;;;1.25;0.80;;;9.40;99.90;;;;;;5052377;28;20056;-60
2021/05/05 01:38:38;;;;;;;2.20;1.00;;;9.40;99.90;;;;;;5056477;28;20393;-60
2021/05/05 01:41:05;;;;;;;8.80;1.05;;;9.30;99.90;;;;;;5056061;28;20295;-61
2021/05/05 01:43:31;;;;;;;4.40;0.90;;;9.30;99.90;;;;;;5054936;28;20478;-60
2021/05/05 01:45:57;;;;;;;1.65;1.10;;;9.30;99.90;;;;;;5048828;28;20131;-61
2021/05/05 01:48:23;;;;;;;1.83;0.68;;;9.20;99.90;;;;;;5056154;28;20025;-61
2021/05/05 01:50:48;;;;;;;2.90;0.70;;;9.30;99.90;;;;;;5038182;28;20045;-62
2021/05/05 01:53:16;;;;;;;3.30;0.80;;;9.20;99.90;;;;;;5055627;28;20432;-61
2021/05/05 01:55:44;;;;;;;4.43;0.88;;;9.20;99.90;;;;;;5055931;28;20066;-61
2021/05/05 01:58:10;;;;;;;2.55;0.65;;;9.20;99.90;;;;;;5037986;28;20021;-60
2021/05/05 02:00:37;;;;;;;4.05;1.30;;;9.20;99.90;;;;;;5055755;28;20402;-60
2021/05/05 02:03:04;;;;;;;1.58;0.73;;;9.20;99.90;;;;;;5055751;28;20056;-61
2021/05/05 02:05:30;;;;;;;1.38;0.65;;;9.20;99.90;;;;;;5054567;28;20087;-61
2021/05/05 02:07:56;;;;;;;4.15;0.80;;;9.10;99.90;;;;;;5034730;28;20041;-61
2021/05/05 02:10:22;;;;;;;4.38;0.77;;;9.10;99.90;;;;;;5054225;28;20033;-60
2021/05/05 02:12:48;;;;;;;2.15;0.90;;;9.10;99.90;;;;;;5034303;28;20449;-61
2021/05/05 02:15:19;;;;;;;2.60;0.70;;;9.00;99.90;;;;;;5036571;28;20033;-61
2021/05/05 02:17:47;;;;;;;1.55;0.70;;;9.00;99.90;;;;;;5035539;28;20075;-63
2021/05/05 02:20:15;;;;;;;0.75;0.50;;;9.10;99.90;;;;;;5035272;28;20479;-60
2021/05/05 02:22:41;;;;;;;3.28;0.70;;;9.00;99.90;;;;;;5035364;28;20120;-60
2021/05/05 02:25:08;;;;;;;2.83;0.82;;;9.10;99.90;;;;;;5035644;28;20029;-61
2021/05/05 02:27:36;;;;;;;2.45;1.10;;;9.10;99.90;;;;;;5035700;28;20026;-61
2021/05/05 02:30:05;;;;;;;3.22;0.80;;;9.10;99.90;;;;;;5035425;28;20474;-61
2021/05/05 02:32:31;;;;;;;2.47;0.90;;;9.10;99.90;;;;;;5033563;28;20619;-61
2021/05/05 02:34:57;;;;;;;2.58;0.70;;;9.20;99.90;;;;;;5033949;28;20442;-61
2021/05/05 02:37:24;;;;;;;2.97;0.90;;;9.20;99.90;;;;;;5034149;28;20030;-61
2021/05/05 02:39:50;;;;;;;2.13;0.85;;;9.10;99.90;;;;;;5033532;28;20032;-61
2021/05/05 02:42:19;;;;;;;2.78;1.45;;;9.10;99.90;;;;;;5033466;28;20033;-61
2021/05/05 02:44:48;;;;;;;3.45;0.88;;;9.20;99.90;;;;;;5019850;28;20081;-61
2021/05/05 02:47:20;;;;;;;2.00;1.00;;;9.10;99.90;;;;;;5014018;28;20060;-61
2021/05/05 02:49:46;;;;;;;1.27;0.70;;;9.10;99.90;;;;;;5013682;28;20057;-62
2021/05/05 02:52:12;;;;;;;2.75;1.38;;;9.00;99.90;;;;;;5015109;28;20065;-61
2021/05/05 02:54:38;;;;;;;2.72;0.88;;;8.90;99.90;;;;;;5015152;28;20030;-61
2021/05/05 02:57:04;;;;;;;2.83;1.10;;;8.90;99.90;;;;;;5015109;28;20079;-62
2021/05/05 02:59:30;;;;;;;7.55;0.93;;;8.90;99.90;;;;;;5014047;28;20041;-61
2021/05/05 03:01:56;;;;;;;2.10;0.73;;;8.90;99.90;;;;;;5015140;28;20068;-61
2021/05/05 03:04:24;;;;;;;4.18;0.80;;;8.70;99.90;;;;;;5014813;28;20467;-61
2021/05/05 03:06:52;;;;;;;4.40;0.90;;;8.70;99.90;;;;;;5015194;28;20026;-61
2021/05/05 03:09:20;;;;;;;2.88;1.02;;;8.80;99.90;;;;;;5014957;28;20038;-61
2021/05/05 03:11:46;;;;;;;1.27;0.82;;;8.80;99.90;;;;;;5013666;28;20038;-62
2021/05/05 03:14:13;;;;;;;1.73;0.80;;;8.80;99.90;;;;;;5034028;28;20029;-62
2021/05/05 03:16:40;;;;;;;2.55;0.68;;;8.80;99.90;;;;;;5054530;28;20120;-61
2021/05/05 03:19:06;;;;;;;2.55;0.98;;;8.80;99.90;;;;;;5054038;28;20059;-60
2021/05/05 03:21:32;;;;;;;3.13;1.10;;;8.70;99.90;;;;;;5052939;28;20072;-60
2021/05/05 03:23:58;;;;;;;3.05;1.08;;;8.60;99.90;;;;;;5050335;28;20080;-61
2021/05/05 03:26:23;;;;;;;2.35;1.00;;;8.70;99.90;;;;;;5053257;28;20033;-61
2021/05/05 03:28:49;;;;;;;4.28;1.00;;;8.70;99.90;;;;;;5054462;28;20021;-62
2021/05/05 03:31:15;;;;;;;1.95;1.02;;;8.70;99.90;;;;;;5054253;28;20060;-60
2021/05/05 03:33:41;;;;;;;3.53;1.13;;;8.70;99.90;;;;;;5052699;28;20029;-60
2021/05/05 03:36:07;;;;;;;4.93;1.10;;;8.70;99.90;;;;;;5054100;28;20393;-61
2021/05/05 03:38:33;;;;;;;2.38;1.13;;;8.60;99.90;;;;;;5050817;28;20037;-62
2021/05/05 03:40:59;;;;;;;2.10;0.88;;;8.60;99.90;;;;;;5053657;28;20076;-62
2021/05/05 03:43:24;;;;;;;2.75;1.20;;;8.60;99.90;;;;;;5050356;28;20056;-61
2021/05/05 03:45:50;;;;;;;3.75;1.00;;;8.60;99.90;;;;;;5034100;28;20033;-60
2021/05/05 03:48:16;;;;;;;4.70;1.60;;;8.60;99.90;;;;;;5033649;28;20033;-63
2021/05/05 03:50:42;;;;;;;4.85;1.10;;;8.70;99.90;;;;;;5034131;28;20116;-63
2021/05/05 03:53:08;;;;;;;2.95;0.95;;;8.70;99.90;;;;;;5033550;28;20448;-63
2021/05/05 03:55:34;;;;;;;3.17;1.40;;;8.70;99.90;;;;;;5034073;28;20116;-62
2021/05/05 03:58:05;;;;;;;5.70;1.23;;;8.70;99.90;;;;;;5033919;28;20026;-63
2021/05/05 04:00:31;;;;;;;;;;;8.70;99.90;;;;;;5033792;28;20083;-63
2021/05/05 04:02:59;;;;;;;8.43;1.40;;;8.80;99.90;;;;;;5032507;28;20391;-63
2021/05/05 04:05:25;;;;;;;13.60;2.13;;;8.80;99.90;;;;;;5033679;28;20117;-63
2021/05/05 04:07:51;;;;;;;6.72;1.20;;;8.80;99.90;;;;;;5033860;28;20116;-64
2021/05/05 04:10:16;;;;;;;4.55;1.08;;;8.90;99.90;;;;;;5005255;28;20053;-63
2021/05/05 04:12:42;;;;;;;4.38;1.17;;;8.90;99.90;;;;;;5032710;28;20025;-63
2021/05/05 04:15:09;;;;;;;3.70;1.70;;;8.80;99.90;;;;;;5050942;28;20072;-64
2021/05/05 04:17:34;;;;;;;4.28;1.65;;;8.90;99.90;;;;;;5053510;28;20036;-63
2021/05/05 04:20:00;;;;;;;7.45;1.85;;;8.80;99.90;;;;;;5053286;28;20025;-64
2021/05/05 04:22:27;;;;;;;9.68;2.10;;;8.70;99.90;;;;;;5053016;28;20045;-64
2021/05/05 04:24:53;;;;;;;3.63;1.23;;;8.70;99.90;;;;;;5048599;28;20072;-62
2021/05/05 04:27:20;;;;;;;2.25;1.10;;;8.70;99.90;;;;;;5053230;28;20029;-62
2021/05/05 04:29:46;;;;;;;5.97;1.38;;;8.70;99.90;;;;;;5053159;28;20064;-62
2021/05/05 04:32:13;;;;;;;3.42;1.42;;;8.60;99.90;;;;;;5052737;28;20367;-63
2021/05/05 04:34:41;;;;;;;3.08;1.45;;;8.60;99.90;;;;;;5052872;28;20462;-62
2021/05/05 04:37:07;;;;;;;5.15;1.33;;;8.60;99.90;;;;;;5038599;28;20140;-62
2021/05/05 04:39:35;;;;;;;3.10;1.15;;;8.60;99.90;;;;;;5053003;28;20108;-63
2021/05/05 04:42:01;;;;;;;7.20;1.30;;;8.60;99.90;;;;;;5052819;28;20048;-62
2021/05/05 04:44:26;;;;;;;8.98;1.38;;;8.60;99.90;;;;;;5040968;28;20400;-62
2021/05/05 04:46:52;;;;;;;7.45;1.42;;;8.60;99.90;;;;;;5032838;28;20037;-63
2021/05/05 04:49:18;;;;;;;4.88;1.35;;;8.60;99.90;;;;;;5024330;28;20037;-61
2021/05/05 04:51:44;;;;;;;7.78;1.92;;;8.60;99.90;;;;;;5032799;28;20030;-63
2021/05/05 04:54:10;;;;;;;5.88;1.52;;;8.50;99.90;;;;;;5032646;28;20053;-62
2021/05/05 04:56:36;;;;;;;6.25;1.58;;;8.60;99.90;;;;;;5032799;28;20037;-64
2021/05/05 04:59:03;;;;;;;8.38;1.77;;;8.60;99.90;;;;;;5032406;28;20033;-64
2021/05/05 05:01:29;;;;;;;8.63;2.28;;;8.50;99.90;;;;;;5032541;28;20525;-63
2021/05/05 05:03:55;;;;;;;14.52;2.65;;;8.50;99.90;;;;;;5032720;28;20029;-64
2021/05/05 05:06:21;;;;;;;12.50;2.10;;;8.40;99.90;;;;;;5032470;28;20021;-63
2021/05/05 05:08:47;;;;;;;7.28;0.93;;;8.40;99.90;;;;;;5031371;28;20030;-63
2021/05/05 05:11:12;;;;;;;4.60;1.48;;;8.40;99.90;;;;;;5031793;28;20044;-63
2021/05/05 05:13:39;;;;;;;8.63;1.92;;;8.40;99.90;;;;;;5036984;28;20065;-63
2021/05/05 05:16:05;;;;;;;10.32;1.90;;;8.60;99.90;;;;;;5051720;28;20029;-63
2021/05/05 05:18:33;;;;;;;8.45;2.38;;;8.60;99.90;;;;;;5051977;28;20037;-63
2021/05/05 05:21:00;;;;;;;7.32;1.13;;;8.60;99.90;;;;;;5051567;28;20508;-62
2021/05/05 05:23:26;;;;;;;11.70;1.45;;;8.60;99.90;;;;;;5052196;28;20032;-64
2021/05/05 05:25:52;;;;;;;3.78;1.08;;;8.60;99.90;;;;;;5052158;28;20529;-64
2021/05/05 05:28:18;;;;;;;8.05;1.30;;;8.60;99.90;;;;;;5051783;28;20482;-64
2021/05/05 05:30:44;;;;;;;6.68;1.92;;;8.60;99.90;;;;;;5048550;28;20038;-63
2021/05/05 05:33:09;;;;;;;4.78;1.27;;;8.60;99.90;;;;;;5051597;28;20029;-63
2021/05/05 05:35:35;;;;;;;7.88;1.00;;;8.60;99.90;;;;;;5039980;28;20030;-64
2021/05/05 05:38:01;;;;;;;14.27;1.55;;;8.70;99.90;;;;;;5012506;28;20022;-64
2021/05/05 05:40:27;;;;;;;7.28;1.50;;;8.60;99.90;;;;;;5012109;28;20376;-63
2021/05/05 05:42:53;;;;;;;7.80;1.30;;;8.70;99.90;;;;;;5012323;28;20022;-64
2021/05/05 05:45:19;;;;;;;4.10;1.50;;;8.70;99.90;;;;;;5049963;28;20061;-64
2021/05/05 05:47:46;;;;;;;4.57;1.30;;;8.70;99.90;;;;;;5050452;28;20056;-65
2021/05/05 05:50:14;;;;;;;7.35;1.20;;;8.70;99.90;;;;;;5044015;28;20354;-64
2021/05/05 05:52:41;;;;;;;8.38;1.77;;;8.80;99.90;;;;;;5051631;28;20033;-64
2021/05/05 05:55:11;;;;;;;7.97;2.50;;;8.80;99.90;;;;;;5051679;28;20075;-65
2021/05/05 05:57:37;;;;;;;3.67;1.02;;;8.70;99.90;;;;;;5051909;28;20500;-64
2021/05/05 06:00:10;;;;;;;8.23;1.48;;;8.80;99.90;;;;;;5050806;28;20125;-64
2021/05/05 06:02:36;;;;;;;8.02;1.70;;;8.80;99.90;;;;;;5050952;28;20538;-64
2021/05/05 06:05:03;;;;;;;11.05;1.50;;;8.90;99.90;;;;;;5051491;28;20060;-65
2021/05/05 06:07:30;;;;;;;13.80;2.47;;;8.80;99.90;;;;;;5033923;28;20397;-64
2021/05/05 06:09:56;;;;;;;6.80;1.23;;;8.70;99.90;;;;;;5051707;28;20048;-64
2021/05/05 06:12:21;;;;;;;7.57;1.15;;;8.80;99.90;;;;;;5051751;28;20104;-64
2021/05/05 06:14:48;;;;;;;6.00;1.70;;;8.90;99.90;;;;;;5051628;28;20454;-65
2021/05/05 06:17:14;;;;;;;9.32;1.25;;;8.80;99.90;;;;;;5051168;28;20355;-63
2021/05/05 06:19:39;;;;;;;6.85;1.70;;;8.80;99.90;;;;;;5051233;28;20037;-64
2021/05/05 06:22:05;;;;;;;8.52;1.50;;;8.90;99.90;;;;;;5051573;28;20045;-63
2021/05/05 06:24:31;;;;;;;3.75;1.67;;;8.90;99.90;;;;;;5047319;28;20025;-63
2021/05/05 06:26:57;;;;;;;10.70;1.50;;;9.00;99.90;;;;;;5055310;28;20036;-64
2021/05/05 06:29:23;;;;;;;11.43;1.38;;;9.00;99.90;;;;;;5055078;28;20056;-63
2021/05/05 06:31:50;;;;;;;11.95;2.05;;;9.10;99.90;;;;;;5049890;28;20044;-64
2021/05/05 06:34:15;;;;;;;9.65;2.00;;;9.00;99.90;;;;;;5053850;28;20035;-64
2021/05/05 06:36:41;;;;;;;3.03;1.10;;;9.00;99.90;;;;;;5055165;28;20037;-65
2021/05/05 06:39:08;;;;;;;11.98;1.40;;;8.90;99.90;;;;;;5055357;28;20071;-64
2021/05/05 06:41:39;;;;;;;7.85;1.67;;;9.00;99.90;;;;;;5054918;28;20119;-63
2021/05/05 06:44:06;;;;;;;11.68;1.38;;;9.10;99.90;;;;;;5046280;28;20068;-63
2021/05/05 06:46:34;;;;;;;5.30;1.10;;;9.10;99.90;;;;;;5035147;28;20045;-63
2021/05/05 06:49:00;;;;;;;7.32;1.42;;;9.10;99.90;;;;;;5033922;28;20065;-63
2021/05/05 06:51:26;;;;;;;8.50;1.60;;;9.10;99.90;;;;;;5034878;28;20037;-63
2021/05/05 06:53:52;;;;;;;6.68;1.45;;;9.20;99.90;;;;;;5035115;28;20147;-62
2021/05/05 06:56:18;;;;;;;14.02;2.03;;;9.20;99.90;;;;;;5033721;28;20061;-64
2021/05/05 06:58:44;;;;;;;14.15;2.38;;;9.00;99.90;;;;;;5035094;28;20069;-63
2021/05/05 07:01:10;;;;;;;7.85;1.83;;;8.90;99.90;;;;;;5033686;28;20055;-64
2021/05/05 07:03:36;;;;;;;8.60;1.50;;;8.90;99.90;;;;;;5017204;28;20080;-64
2021/05/05 07:06:02;;;;;;;7.85;1.58;;;9.00;99.90;;;;;;5035004;28;20056;-64
2021/05/05 07:08:28;;;;;;;6.38;1.08;;;9.10;99.90;;;;;;5034561;28;20116;-63
2021/05/05 07:10:54;;;;;;;10.32;2.20;;;9.20;99.90;;;;;;5016808;28;20429;-63
2021/05/05 07:13:20;;;;;;;7.13;1.48;;;9.30;99.90;;;;;;5034376;28;20025;-63
2021/05/05 07:15:47;;;;;;;13.10;1.67;;;9.30;99.90;;;;;;5050127;28;20056;-64
2021/05/05 07:18:12;;;;;;;5.15;1.70;;;9.30;99.90;;;;;;5054504;28;20371;-64
2021/05/05 07:20:39;;;;;;;10.75;2.22;;;9.40;99.90;;;;;;5036479;28;20090;-64
2021/05/05 07:23:05;;;;;;;2.65;1.27;;;9.40;99.90;;;;;;5054134;28;20401;-64
2021/05/05 07:25:31;;;;;;;5.55;1.55;;;9.30;99.90;;;;;;5054170;28;20036;-64
2021/05/05 07:27:58;;;;;;;7.30;1.40;;;9.30;99.90;;;;;;5053990;28;20116;-63
2021/05/05 07:30:25;;;;;;;4.43;1.48;;;9.50;99.90;;;;;;5054239;28;20490;-64
2021/05/05 07:32:51;;;;;;;5.82;1.50;;;9.50;99.90;;;;;;5054430;28;20082;-64
2021/05/05 07:35:19;;;;;;;8.10;1.60;;;9.60;99.90;;;;;;5053595;28;20456;-65
2021/05/05 07:50:59;;;;;;;6.15;1.38;;;9.50;98.90;;;;;;5000126;28;20049;-65
2021/05/05 07:53:25;;;;;;;7.00;1.35;;;9.60;99.90;;;;;;5033819;28;20033;-64
2021/05/05 07:55:54;;;;;;;3.42;1.20;;;9.60;99.90;;;;;;5033711;28;20045;-63
2021/05/05 07:58:21;;;;;;;3.40;1.65;;;9.80;99.90;;;;;;5015788;28;20124;-64
2021/05/05 08:00:47;;;;;;;4.47;0.98;;;10.00;99.90;;;;;;5033524;28;20057;-63
2021/05/05 08:03:13;;;;;;;3.25;0.90;;;10.20;99.80;;;;;;5033743;28;20030;-63
2021/05/05 08:05:39;;;;;;;6.18;1.20;;;10.10;99.90;;;;;;5033607;28;20044;-64
2021/05/05 08:08:05;;;;;;;6.13;1.48;;;10.10;98.40;;;;;;5033819;28;20034;-64
2021/05/05 08:10:31;;;;;;;13.25;1.60;;;10.20;98.80;;;;;;5033303;28;20042;-64
2021/05/05 08:12:57;;;;;;;5.15;1.67;;;10.10;99.00;;;;;;5033572;28;20037;-64
2021/05/05 08:15:23;;;;;;;4.53;1.15;;;10.10;98.60;;;;;;5045547;28;20033;-64
2021/05/05 08:17:49;;;;;;;3.33;1.52;;;10.20;98.40;;;;;;5035631;28;20087;-63
2021/05/05 08:20:15;;;;;;;6.32;1.50;;;10.20;98.00;;;;;;5053138;28;20076;-63
2021/05/05 08:22:41;;;;;;;11.18;1.40;;;10.30;97.40;;;;;;5053021;28;20398;-64
2021/05/05 08:25:08;;;;;;;6.65;1.13;;;10.10;97.80;;;;;;5050231;28;20044;-64
2021/05/05 08:27:34;;;;;;;6.32;1.40;;;10.20;97.50;;;;;;5052729;28;20417;-64
2021/05/05 08:30:00;;;;;;;9.55;1.58;;;10.40;96.90;;;;;;5052952;28;20112;-64
2021/05/05 08:32:26;;;;;;;10.25;1.35;;;10.40;98.10;;;;;;5033442;28;20034;-64
2021/05/05 08:34:52;;;;;;;6.38;1.08;;;10.30;96.70;;;;;;5033192;28;20037;-64
2021/05/05 08:37:18;;;;;;;5.10;1.33;;;10.10;97.30;;;;;;5033041;28;20120;-64
2021/05/05 08:39:43;;;;;;;7.70;1.02;;;10.20;97.90;;;;;;5032957;28;20026;-64
2021/05/05 08:42:09;;;;;;;11.70;2.22;;;10.40;97.50;;;;;;5033007;28;20036;-64
2021/05/05 08:44:35;;;;;;;3.65;0.90;;;10.40;97.50;;;;;;5045963;28;20074;-63
2021/05/05 08:47:03;;;;;;;4.00;1.00;;;10.70;97.00;;;;;;5052105;28;20033;-64
2021/05/05 08:49:29;;;;;;;3.88;1.02;;;11.00;95.90;;;;;;5052352;28;20028;-64
2021/05/05 08:51:55;;;;;;;7.25;1.00;;;10.90;95.30;;;;;;5052723;28;20031;-63
2021/05/05 08:54:21;;;;;;;4.40;0.90;;;10.90;94.40;;;;;;5052712;28;20090;-65
2021/05/05 08:56:47;;;;;;;2.75;0.82;;;10.90;93.70;;;;;;5052524;28;20131;-64
2021/05/05 08:59:15;;;;;;;14.00;3.05;;;11.00;94.50;;;;;;5052611;28;20021;-64
2021/05/05 09:01:43;;;;;;;6.95;0.98;;;11.00;92.80;;;;;;5052275;28;20608;-61
2021/05/05 09:04:10;;;;;;;7.03;1.15;;;11.00;93.60;;;;;;5052255;28;20063;-64
2021/05/05 09:06:48;;;;;;;3.83;1.08;;;11.20;92.30;;;;;;5052293;28;20029;-63
2021/05/05 09:09:34;;;;;;;3.17;0.90;;;10.90;92.40;;;;;;5052591;28;20033;-64
2021/05/05 09:12:15;;;;;;;1.90;0.77;;;10.90;93.20;;;;;;5052512;28;20044;-63
2021/05/05 09:15:03;;;;;;;51.53;3.13;;;10.80;91.70;;;;;;5038500;28;20044;-65
2021/05/05 09:17:35;;;;;;;19.33;1.95;;;10.50;94.20;;;;;;5032012;28;20037;-64
2021/05/05 09:20:06;;;;;;;4.35;0.90;;;10.10;97.00;;;;;;5032399;28;20033;-64
2021/05/05 09:22:54;;;;;;;3.22;1.10;;;10.00;97.60;;;;;;5031895;28;20075;-65
2021/05/05 09:25:31;;;;;;;2.08;0.98;;;10.00;97.10;;;;;;5030954;28;20065;-64
2021/05/05 09:28:20;;;;;;;6.25;1.10;;;10.20;96.40;;;;;;5032363;28;20372;-64
2021/05/05 09:30:51;;;;;;;1.58;0.70;;;10.30;97.10;;;;;;5032077;28;20057;-64
2021/05/05 09:33:34;;;;;;;4.32;1.00;;;10.40;97.80;;;;;;5031200;28;20029;-64
2021/05/05 09:36:09;;;;;;;7.43;0.95;;;10.60;97.00;;;;;;5031879;28;20467;-64
2021/05/05 09:38:50;;;;;;;2.78;0.82;;;10.70;97.10;;;;;;5031799;28;20030;-63
2021/05/05 09:41:28;;;;;;;7.15;1.63;;;10.50;97.40;;;;;;5031988;28;20038;-63
2021/05/05 09:44:07;;;;;;;26.00;2.65;;;10.50;97.50;;;;;;5031788;28;20033;-63
2021/05/05 09:46:43;;;;;;;25.70;1.63;;;10.10;99.90;;;;;;5051991;28;20033;-63
2021/05/05 09:49:34;;;;;;;11.10;2.63;;;8.40;99.90;;;;;;5051846;28;20025;-63
2021/05/05 09:52:04;;;;;;;;;;;7.50;99.90;;;;;;5052092;28;20111;-64
2021/05/05 09:54:37;;;;;;;2.88;0.55;;;7.00;99.90;;;;;;5050605;28;20003;-64
2021/05/05 09:57:30;;;;;;;1.88;0.68;;;7.00;99.90;;;;;;5051923;28;20025;-64
2021/05/05 10:00:05;;;;;;;1.60;0.88;;;7.10;99.90;;;;;;5055607;28;20067;-63
2021/05/05 10:02:48;;;;;;;0.70;0.57;;;7.40;99.90;;;;;;5055677;28;20060;-63
2021/05/05 10:05:23;;;;;;;6.13;0.70;;;7.80;99.90;;;;;;5055776;28;20037;-65
2021/05/05 10:07:56;;;;;;;2.50;0.85;;;8.30;99.90;;;;;;5056001;28;20063;-64
2021/05/05 10:10:29;;;;;;;5.22;0.90;;;8.60;99.90;;;;;;5055610;28;20040;-65
2021/05/05 10:12:59;;;;;;;2.33;0.77;;;9.00;99.90;;;;;;5055538;28;20116;-64
2021/05/05 10:15:30;;;;;;;1.50;0.77;;;8.90;99.90;;;;;;5015721;28;20383;-65
2021/05/05 10:17:57;;;;;;;3.22;1.00;;;9.00;99.90;;;;;;5016063;28;20060;-64
2021/05/05 10:20:27;;;;;;;1.48;0.60;;;9.00;99.90;;;;;;4998235;28;20099;-64
2021/05/05 10:22:59;;;;;;;3.63;0.75;;;9.20;99.90;;;;;;5019304;28;20068;-63
2021/05/05 10:25:26;;;;;;;7.30;1.83;;;9.30;99.90;;;;;;5035304;28;20490;-64
2021/05/05 10:27:53;;;;;;;1.25;0.70;;;9.30;99.90;;;;;;5032276;28;20033;-64
2021/05/05 10:30:42;;;;;;;2.13;0.93;;;9.60;99.90;;;;;;5035122;28;20030;-64
2021/05/05 10:33:19;;;;;;;1.75;0.70;;;9.80;99.90;;;;;;5033987;28;20033;-64
2021/05/05 10:35:45;;;;;;;2.00;0.50;;;10.20;99.90;;;;;;5033658;28;20076;-63
2021/05/05 10:38:32;;;;;;;5.80;1.77;;;10.20;99.90;;;;;;5035240;28;20033;-64
2021/05/05 10:41:12;;;;;;;1.17;1.05;;;10.50;99.90;;;;;;5034769;28;20029;-64
2021/05/05 10:44:04;;;;;;;9.80;0.77;;;10.60;99.90;;;;;;5040227;28;20052;-64
2021/05/05 10:46:35;;;;;;;2.75;0.98;;;11.00;99.80;;;;;;5052409;28;20486;-64
2021/05/05 10:49:05;;;;;;;3.90;0.77;;;11.20;98.30;;;;;;5054750;28;20070;-64
2021/05/05 10:51:48;;;;;;;21.77;2.47;;;11.20;97.30;;;;;;5054897;28;20048;-63
2021/05/05 10:54:20;;;;;;;1.05;0.50;;;11.20;96.40;;;;;;5054935;28;20045;-63
2021/05/05 10:57:15;;;;;;;1.23;0.57;;;10.90;96.80;;;;;;5053230;28;20025;-63
2021/05/05 11:00:00;;;;;;;0.95;0.52;;;10.90;97.30;;;;;;5041490;28;20383;-64
2021/05/05 11:02:44;;;;;;;6.03;0.55;;;11.10;98.00;;;;;;5054787;28;20036;-64
2021/05/05 11:05:29;;;;;;;1.27;0.60;;;11.10;97.40;;;;;;5053817;28;20041;-64
2021/05/05 11:08:06;;;;;;;15.90;1.23;;;11.10;97.60;;;;;;5050375;28;20033;-63
2021/05/05 11:10:32;;;;;;;5.43;0.80;;;11.10;95.20;;;;;;5035925;28;20029;-63
2021/05/05 11:13:19;;;;;;;1.48;0.57;;;10.90;95.70;;;;;;5054569;28;20048;-63
2021/05/05 11:15:45;;;;;;;3.28;0.80;;;11.10;95.30;;;;;;5010411;28;20130;-64
2021/05/05 11:18:26;;;;;;;2.83;0.70;;;11.30;94.20;;;;;;5014763;28;20171;-63
2021/05/05 11:21:08;;;;;;;2.83;0.70;;;11.50;93.70;;;;;;4996339;28;20045;-63
2021/05/05 11:23:38;;;;;;;5.28;0.90;;;11.70;92.50;;;;;;4998214;28;20104;-62
2021/05/05 11:26:26;;;;;;;2.90;0.70;;;11.40;93.10;;;;;;5014444;28;20464;-64
2021/05/05 11:29:11;;;;;;;1.83;0.70;;;11.40;93.50;;;;;;5014330;28;20053;-64
2021/05/05 11:31:49;;;;;;;7.68;1.27;;;11.60;92.90;;;;;;4997830;28;20050;-64
2021/05/05 11:34:21;;;;;;;2.97;0.60;;;11.90;91.70;;;;;;5014300;28;20069;-64
2021/05/05 11:37:07;;;;;;;4.07;1.00;;;11.50;91.80;;;;;;5014361;28;20041;-64
2021/05/05 11:39:39;;;;;;;2.78;1.00;;;11.90;91.00;;;;;;5033997;28;20036;-64
2021/05/05 11:42:24;;;;;;;2.80;0.90;;;12.50;88.80;;;;;;5033871;28;20037;-64
2021/05/05 11:44:54;;;;;;;2.13;0.82;;;12.50;87.70;;;;;;5041785;28;20107;-64
2021/05/05 11:47:32;;;;;;;3.00;0.70;;;12.80;85.70;;;;;;5054343;28;20040;-64
2021/05/05 11:50:13;;;;;;;1.65;0.60;;;13.30;84.90;;;;;;5049690;28;20041;-64
2021/05/05 11:52:50;;;;;;;5.00;0.80;;;13.20;83.10;;;;;;5030430;28;20493;-64
2021/05/05 11:55:30;;;;;;;3.00;0.70;;;13.30;83.20;;;;;;5053765;28;20040;-64
2021/05/05 11:57:59;;;;;;;3.90;0.65;;;12.80;79.40;;;;;;5049049;28;20056;-64
2021/05/05 12:00:36;;;;;;;62.03;5.03;;;12.30;79.60;;;;;;5053360;28;20094;-65
2021/05/05 12:03:07;;;;;;;3.95;0.88;;;12.00;85.30;;;;;;5053424;28;20105;-64
2021/05/05 12:05:35;;;;;;;;;;;11.80;87.40;;;;;;5054042;28;20033;-64
2021/05/05 12:08:09;;;;;;;11.98;0.88;;;12.20;87.30;;;;;;5053584;28;20058;-64
2021/05/05 12:10:54;;;;;;;4.55;0.80;;;12.30;85.20;;;;;;5053381;28;20044;-63
2021/05/05 12:13:30;;;;;;;2.47;0.93;;;12.30;86.40;;;;;;5032525;28;20064;-64
2021/05/05 12:16:10;;;;;;;8.45;0.70;;;12.60;84.50;;;;;;5032346;28;20387;-64
2021/05/05 12:18:47;;;;;;;5.38;0.65;;;12.80;82.20;;;;;;5033137;28;20021;-64
2021/05/05 12:21:19;;;;;;;1.75;0.50;;;13.00;79.40;;;;;;5033070;28;20075;-65
2021/05/05 12:23:52;;;;;;;1.45;0.50;;;13.10;76.00;;;;;;5032671;28;20045;-64
2021/05/05 12:26:23;;;;;;;5.95;0.52;;;13.20;72.10;;;;;;5033316;28;20546;-64
2021/05/05 12:28:52;;;;;;;7.47;0.80;;;13.10;71.00;;;;;;5032904;28;20044;-64
2021/05/05 12:31:25;;;;;;;1.38;0.50;;;13.00;68.90;;;;;;5032960;28;20105;-64
2021/05/05 12:33:51;;;;;;;0.98;0.43;;;13.10;68.20;;;;;;5033074;28;20025;-65
2021/05/05 12:36:25;;;;;;;2.85;0.60;;;13.30;66.80;;;;;;5033013;28;20049;-64
2021/05/05 12:39:02;;;;;;;1.13;0.45;;;13.50;68.50;;;;;;5032633;28;20052;-65
2021/05/05 12:41:52;;;;;;;1.35;0.73;;;13.60;67.20;;;;;;5031401;28;20048;-64
2021/05/05 12:44:20;;;;;;;2.40;0.68;;;13.60;67.30;;;;;;5025308;28;20030;-64
2021/05/05 12:47:06;;;;;;;7.82;0.98;;;13.90;66.00;;;;;;5032818;28;20041;-65
2021/05/05 12:49:37;;;;;;;4.57;1.00;;;13.20;67.30;;;;;;5032749;28;20022;-64
2021/05/05 12:52:31;;;;;;;2.05;0.52;;;12.60;69.70;;;;;;5031640;28;20026;-64
2021/05/05 12:55:21;;;;;;;4.93;0.70;;;12.30;72.40;;;;;;5031413;28;20577;-65
2021/05/05 12:58:16;;;;;;;3.40;0.70;;;12.20;74.30;;;;;;5032293;28;20065;-64
2021/05/05 13:00:48;;;;;;;0.65;0.30;;;11.90;78.90;;;;;;5025106;28;20088;-64
2021/05/05 13:03:21;;;;;;;1.92;0.55;;;11.40;86.30;;;;;;5032289;28;20540;-64
2021/05/05 13:05:58;;;;;;;2.13;0.50;;;11.00;91.30;;;;;;5032240;28;20140;-64
2021/05/05 13:08:56;;;;;;;5.10;1.05;;;10.90;93.40;;;;;;5032373;28;20037;-63
2021/05/05 13:11:38;;;;;;;2.58;0.43;;;10.80;95.10;;;;;;5032174;28;20104;-64
2021/05/05 13:14:08;;;;;;;1.27;0.47;;;10.50;96.30;;;;;;5014426;28;20044;-65
2021/05/05 13:31:38;;;;;;;2.80;1.17;;;12.70;91.70;;;;;;5031134;28;20037;-64
2021/05/05 13:34:10;;;;;;;2.55;0.65;;;13.60;86.90;;;;;;5014072;28;20109;-64